createdAt,value
2019-01-24T00:01:49.374Z,63.83
2019-01-24T00:04:20.617Z,62.93
2019-01-24T00:06:51.681Z,63.05
2019-01-24T00:09:22.880Z,63.68
2019-01-24T00:11:53.945Z,62.85
2019-01-24T00:14:25.174Z,62.59
2019-01-24T00:16:56.313Z,62.77
2019-01-24T00:19:27.404Z,62.83
2019-01-24T00:21:58.484Z,62.36
2019-01-24T00:24:29.584Z,63.05
2019-01-24T00:27:01.022Z,63.39
2019-01-24T00:29:32.028Z,63.86
2019-01-24T00:32:03.325Z,63.65
2019-01-24T00:34:34.335Z,63.40
2019-01-24T00:37:05.546Z,63.69
2019-01-24T00:39:39.738Z,63.65
2019-01-24T00:42:10.878Z,63.49
2019-01-24T00:44:43.765Z,63.80
2019-01-24T00:47:14.833Z,64.18
2019-01-24T00:49:45.903Z,64.91
2019-01-24T00:52:16.980Z,64.90
2019-01-24T00:54:48.124Z,64.50
2019-01-24T00:57:19.176Z,64.84
2019-01-24T00:59:50.174Z,62.46
2019-01-24T01:02:21.245Z,62.28
2019-01-24T01:04:52.313Z,62.85
2019-01-24T01:07:23.649Z,62.92
2019-01-24T01:09:54.653Z,63.06
2019-01-24T01:12:25.782Z,63.18
2019-01-24T01:14:56.853Z,63.20
2019-01-24T01:17:27.985Z,63.38
2019-01-24T01:19:59.140Z,63.88
2019-01-24T01:22:30.323Z,64.18
2019-01-24T01:25:01.600Z,63.89
2019-01-24T01:27:32.754Z,64.18
2019-01-24T01:30:04.599Z,64.09
2019-01-24T01:32:35.723Z,63.84
2019-01-24T01:35:07.043Z,63.90
2019-01-24T01:37:38.226Z,64.04
2019-01-24T01:40:10.844Z,63.99
2019-01-24T01:42:42.040Z,63.81
2019-01-24T01:45:18.072Z,64.04
2019-01-24T01:47:49.529Z,63.54
2019-01-24T01:50:22.789Z,63.71
2019-01-24T01:52:53.976Z,63.84
2019-01-24T01:55:25.054Z,63.57
2019-01-24T01:57:56.189Z,63.52
2019-01-24T02:00:27.665Z,63.58
2019-01-24T02:02:58.720Z,63.34
2019-01-24T02:05:29.873Z,63.15
2019-01-24T02:08:01.043Z,62.89
2019-01-24T02:10:32.117Z,63.00
2019-01-24T02:13:03.292Z,62.77
2019-01-24T02:15:34.512Z,62.59
2019-01-24T02:18:05.866Z,63.13
2019-01-24T02:20:37.101Z,62.09
2019-01-24T02:23:08.325Z,61.90
2019-01-24T02:25:39.481Z,62.65
2019-01-24T02:28:10.654Z,62.49
2019-01-24T02:30:41.854Z,60.99
2019-01-24T02:33:13.009Z,59.45
2019-01-24T02:35:46.352Z,60.52
2019-01-24T02:38:17.517Z,60.74
2019-01-24T02:40:48.853Z,60.48
2019-01-24T02:43:19.871Z,60.62
2019-01-24T02:45:52.038Z,60.27
2019-01-24T02:48:23.160Z,59.97
2019-01-24T02:50:54.235Z,60.27
2019-01-24T02:53:25.378Z,59.70
2019-01-24T02:55:56.540Z,60.43
2019-01-24T02:58:27.573Z,60.83
2019-01-24T03:00:58.698Z,60.04
2019-01-24T03:03:29.844Z,59.54
2019-01-24T03:06:01.896Z,60.19
2019-01-24T03:08:33.022Z,60.15
2019-01-24T03:11:04.599Z,60.43
2019-01-24T03:13:35.636Z,60.61
2019-01-24T03:16:06.866Z,60.98
2019-01-24T03:18:38.065Z,60.02
2019-01-24T03:21:09.190Z,59.78
2019-01-24T03:23:40.343Z,60.34
2019-01-24T03:26:11.425Z,60.18
2019-01-24T03:28:42.518Z,59.75
2019-01-24T03:31:13.715Z,60.01
2019-01-24T03:33:44.717Z,60.21
2019-01-24T03:36:15.902Z,60.63
2019-01-24T03:38:47.040Z,61.72
2019-01-24T03:41:18.260Z,59.68
2019-01-24T03:43:49.433Z,59.76
2019-01-24T03:46:20.685Z,59.63
2019-01-24T03:48:51.673Z,60.07
2019-01-24T03:51:22.757Z,59.95
2019-01-24T03:53:53.968Z,59.07
2019-01-24T03:56:25.111Z,59.55
2019-01-24T03:58:56.265Z,59.04
2019-01-24T04:01:27.456Z,59.88
2019-01-24T04:03:58.649Z,59.64
2019-01-24T04:06:29.849Z,60.28
2019-01-24T04:09:01.065Z,60.38
2019-01-24T04:11:33.614Z,60.31
2019-01-24T04:14:05.029Z,60.76
2019-01-24T04:16:36.306Z,61.14
2019-01-24T04:19:07.558Z,61.08
2019-01-24T04:21:38.794Z,61.42
2019-01-24T04:24:09.852Z,62.04
2019-01-24T04:26:41.082Z,62.47
2019-01-24T04:29:12.174Z,62.38
2019-01-24T04:31:43.357Z,62.37
2019-01-24T04:34:14.430Z,62.53
2019-01-24T04:36:45.802Z,62.71
2019-01-24T04:39:17.096Z,62.33
2019-01-24T04:41:48.310Z,62.87
2019-01-24T04:44:19.516Z,62.80
2019-01-24T04:46:50.597Z,63.24
2019-01-24T04:49:22.032Z,63.36
2019-01-24T04:51:53.282Z,62.94
2019-01-24T04:54:24.286Z,62.38
2019-01-24T04:56:55.394Z,63.02
2019-01-24T04:59:26.387Z,64.07
2019-01-24T05:01:57.462Z,63.21
2019-01-24T05:04:28.666Z,63.07
2019-01-24T05:06:59.804Z,62.51
2019-01-24T05:09:30.964Z,62.11
2019-01-24T05:12:02.153Z,61.84
2019-01-24T05:14:33.257Z,62.14
2019-01-24T05:17:04.507Z,63.24
2019-01-24T05:19:35.774Z,63.01
2019-01-24T05:22:07.002Z,63.92
2019-01-24T05:24:38.082Z,62.92
2019-01-24T05:27:09.164Z,62.52
2019-01-24T05:29:40.542Z,62.14
2019-01-24T05:32:11.769Z,62.35
2019-01-24T05:34:42.894Z,62.33
2019-01-24T05:37:14.114Z,61.85
2019-01-24T05:39:45.310Z,62.02
2019-01-24T05:42:16.524Z,62.54
2019-01-24T05:44:47.724Z,62.80
2019-01-24T05:47:18.790Z,62.83
2019-01-24T05:49:49.838Z,63.10
2019-01-24T05:52:20.966Z,62.72
2019-01-24T05:54:51.984Z,62.84
2019-01-24T05:57:23.140Z,62.87
2019-01-24T05:59:54.414Z,63.14
2019-01-24T06:02:25.538Z,63.32
2019-01-24T06:04:56.743Z,62.98
2019-01-24T06:07:27.834Z,63.06
2019-01-24T06:09:58.908Z,62.93
2019-01-24T06:12:31.424Z,63.27
2019-01-24T06:15:02.725Z,62.16
2019-01-24T06:17:34.121Z,62.06
2019-01-24T06:20:06.365Z,61.94
2019-01-24T06:22:37.530Z,62.30
2019-01-24T06:25:09.142Z,62.67
2019-01-24T06:27:40.212Z,62.03
2019-01-24T06:30:14.889Z,62.27
2019-01-24T06:32:46.266Z,62.54
2019-01-24T06:35:17.720Z,62.24
2019-01-24T06:37:48.998Z,62.78
2019-01-24T06:40:20.132Z,63.21
2019-01-24T06:42:51.360Z,62.82
2019-01-24T06:45:23.058Z,62.54
2019-01-24T06:47:54.255Z,62.72
2019-01-24T06:50:25.366Z,63.39
2019-01-24T06:52:56.479Z,62.91
2019-01-24T06:55:28.981Z,62.90
2019-01-24T06:58:00.120Z,63.26
2019-01-24T07:00:31.279Z,63.15
2019-01-24T07:03:02.728Z,63.50
2019-01-24T07:05:34.825Z,62.81
2019-01-24T07:08:06.618Z,62.45
2019-01-24T07:10:37.725Z,62.39
2019-01-24T07:13:08.911Z,63.20
2019-01-24T07:15:40.023Z,63.20
2019-01-24T07:18:11.242Z,62.78
2019-01-24T07:20:42.422Z,63.00
2019-01-24T07:23:13.533Z,62.79
2019-01-24T07:25:44.740Z,63.18
2019-01-24T07:28:17.277Z,63.53
2019-01-24T07:30:48.574Z,63.03
2019-01-24T07:33:19.717Z,62.26
2019-01-24T07:35:50.906Z,62.79
2019-01-24T07:38:22.111Z,62.64
2019-01-24T07:40:53.244Z,62.97
2019-01-24T07:43:24.293Z,62.99
2019-01-24T07:45:55.481Z,63.28
2019-01-24T07:48:26.734Z,62.31
2019-01-24T07:50:57.993Z,62.30
2019-01-24T07:53:29.151Z,62.49
2019-01-24T07:56:00.246Z,62.43
2019-01-24T07:58:31.434Z,62.22
2019-01-24T08:01:02.512Z,61.66
2019-01-24T08:03:33.848Z,61.76
2019-01-24T08:06:09.032Z,62.14
2019-01-24T08:08:38.163Z,62.63
2019-01-24T08:11:09.411Z,62.64
2019-01-24T08:13:40.610Z,62.59
2019-01-24T08:16:11.714Z,62.77
2019-01-24T08:18:42.926Z,62.71
2019-01-24T08:21:13.956Z,62.54
2019-01-24T08:23:45.383Z,62.33
2019-01-24T08:26:16.495Z,62.61
2019-01-24T08:28:48.581Z,62.54
2019-01-24T08:31:20.784Z,62.19
2019-01-24T08:33:51.973Z,61.51
2019-01-24T08:36:23.190Z,62.21
2019-01-24T08:38:59.342Z,62.28
2019-01-24T08:41:31.531Z,60.98
2019-01-24T08:44:02.624Z,60.57
2019-01-24T08:46:33.773Z,59.89
2019-01-24T08:49:05.070Z,59.44
2019-01-24T08:51:36.238Z,59.15
2019-01-24T08:54:07.437Z,59.42
2019-01-24T08:56:38.535Z,59.70
2019-01-24T08:59:09.685Z,59.72
2019-01-24T09:01:42.720Z,59.63
2019-01-24T09:04:13.938Z,58.60
2019-01-24T09:06:45.272Z,58.02
2019-01-24T09:09:16.578Z,58.91
2019-01-24T09:11:47.735Z,57.50
2019-01-24T09:14:18.853Z,57.64
2019-01-24T09:16:49.977Z,58.16
2019-01-24T09:19:21.157Z,58.26
2019-01-24T09:21:52.188Z,58.83
2019-01-24T09:24:23.406Z,58.92
2019-01-24T09:26:54.670Z,59.70
2019-01-24T09:29:28.696Z,60.05
2019-01-24T09:31:59.841Z,59.59
2019-01-24T09:34:31.244Z,59.41
2019-01-24T09:37:02.749Z,59.14
2019-01-24T09:39:34.020Z,59.53
2019-01-24T09:42:05.466Z,59.63
2019-01-24T09:44:36.640Z,58.79
2019-01-24T09:47:07.800Z,58.32
2019-01-24T09:49:39.003Z,57.85
2019-01-24T09:52:10.135Z,57.23
2019-01-24T09:54:41.181Z,56.59
2019-01-24T09:57:12.353Z,56.76
2019-01-24T09:59:43.437Z,56.48
2019-01-24T10:02:14.586Z,55.36
2019-01-24T10:04:45.672Z,55.34
2019-01-24T10:07:16.764Z,54.14
2019-01-24T10:09:47.956Z,53.41
2019-01-24T10:12:18.962Z,52.13
2019-01-24T10:14:50.221Z,52.16
2019-01-24T10:17:21.341Z,53.98
2019-01-24T10:19:52.523Z,52.62
2019-01-24T10:22:23.852Z,52.07
2019-01-24T10:24:56.027Z,52.62
2019-01-24T10:27:27.032Z,52.41
2019-01-24T10:29:58.087Z,51.56
2019-01-24T10:32:29.390Z,52.11
2019-01-24T10:35:00.529Z,52.25
2019-01-24T10:37:32.797Z,51.82
2019-01-24T10:40:05.332Z,51.72
2019-01-24T10:42:36.493Z,51.79
2019-01-24T10:45:10.668Z,51.63
2019-01-24T10:47:41.794Z,52.09
2019-01-24T10:50:14.438Z,51.21
2019-01-24T10:52:45.687Z,51.70
2019-01-24T10:55:18.739Z,51.56
2019-01-24T10:57:50.276Z,51.09
2019-01-24T11:00:26.886Z,51.00
2019-01-24T11:02:58.043Z,51.96
2019-01-24T11:05:29.294Z,52.52
2019-01-24T11:08:00.642Z,51.90
2019-01-24T11:10:31.832Z,51.69
2019-01-24T11:13:04.294Z,51.08
2019-01-24T11:15:35.626Z,49.20
2019-01-24T11:18:08.066Z,51.32
2019-01-24T11:20:39.281Z,48.93
2019-01-24T11:23:10.343Z,46.87
2019-01-24T11:25:41.497Z,45.90
2019-01-24T11:28:12.587Z,45.39
2019-01-24T11:30:43.786Z,43.18
2019-01-24T11:33:15.948Z,42.47
2019-01-24T11:35:47.107Z,42.25
2019-01-24T11:38:18.350Z,40.94
2019-01-24T11:40:49.545Z,42.05
2019-01-24T11:43:20.767Z,41.19
2019-01-24T11:45:51.841Z,38.41
2019-01-24T11:48:23.090Z,34.18
2019-01-24T11:50:54.174Z,31.45
2019-01-24T11:53:25.420Z,28.69
2019-01-24T11:55:56.608Z,25.13
2019-01-24T11:58:27.734Z,24.64
2019-01-24T12:00:58.958Z,22.91
2019-01-24T12:03:30.113Z,22.07
2019-01-24T12:06:01.294Z,23.03
2019-01-24T12:08:32.552Z,23.05
2019-01-24T12:11:03.959Z,23.19
2019-01-24T12:13:35.130Z,22.65
2019-01-24T12:16:06.346Z,19.68
2019-01-24T12:18:37.474Z,19.20
2019-01-24T12:21:08.759Z,18.81
2019-01-24T12:23:39.889Z,16.86
2019-01-24T12:26:11.142Z,19.05
2019-01-24T12:28:42.278Z,18.07
2019-01-24T12:31:13.575Z,18.59
2019-01-24T12:33:44.756Z,17.47
2019-01-24T12:36:16.016Z,16.98
2019-01-24T12:38:47.160Z,16.74
2019-01-24T12:41:18.273Z,21.64
2019-01-24T12:43:49.359Z,19.21
2019-01-24T12:46:20.461Z,18.40
2019-01-24T12:48:51.621Z,21.41
2019-01-24T12:51:22.879Z,24.27
2019-01-24T12:53:53.986Z,24.01
2019-01-24T12:56:25.200Z,24.91
2019-01-24T12:58:56.293Z,23.68
2019-01-24T13:01:27.411Z,25.53
2019-01-24T13:03:58.487Z,28.18
2019-01-24T13:06:29.665Z,30.97
2019-01-24T13:09:00.706Z,34.22
2019-01-24T13:11:33.388Z,35.60
2019-01-24T13:14:04.650Z,35.91
2019-01-24T13:16:35.922Z,37.01
2019-01-24T13:19:06.983Z,37.47
2019-01-24T13:21:38.160Z,38.57
2019-01-24T13:24:09.299Z,39.25
2019-01-24T13:26:40.313Z,39.00
2019-01-24T13:29:11.402Z,38.93
2019-01-24T13:31:42.422Z,39.47
2019-01-24T13:34:13.616Z,40.64
2019-01-24T13:36:44.803Z,40.93
2019-01-24T13:39:15.897Z,43.04
2019-01-24T13:41:46.978Z,44.12
2019-01-24T13:44:18.086Z,44.72
2019-01-24T13:46:49.063Z,44.65
2019-01-24T13:49:20.112Z,45.45
2019-01-24T13:51:51.299Z,45.47
2019-01-24T13:54:22.449Z,46.25
2019-01-24T13:56:53.708Z,46.52
2019-01-24T13:59:24.837Z,46.83
2019-01-24T14:01:56.839Z,46.92
2019-01-24T14:04:32.533Z,46.96
2019-01-24T14:07:03.706Z,47.47
2019-01-24T14:09:34.798Z,47.80
2019-01-24T14:12:06.060Z,46.85
2019-01-24T14:14:37.244Z,46.48
2019-01-24T14:17:08.320Z,46.43
2019-01-24T14:19:39.389Z,47.04
2019-01-24T14:22:10.558Z,47.76
2019-01-24T14:24:41.643Z,47.46
2019-01-24T14:27:12.808Z,47.31
2019-01-24T14:29:43.948Z,48.84
2019-01-24T14:32:14.947Z,49.14
2019-01-24T14:34:45.996Z,48.95
2019-01-24T14:37:17.524Z,48.79
2019-01-24T14:39:48.594Z,48.77
2019-01-24T14:42:19.688Z,49.42
2019-01-24T14:44:50.870Z,48.92
2019-01-24T14:47:21.966Z,49.65
2019-01-24T14:49:53.029Z,49.96
2019-01-24T14:52:24.173Z,50.44
2019-01-24T14:54:55.162Z,50.77
2019-01-24T14:57:26.344Z,50.85
2019-01-24T14:59:57.496Z,50.67
2019-01-24T15:02:28.667Z,50.39
2019-01-24T15:04:59.737Z,50.58
2019-01-24T15:07:31.401Z,50.40
2019-01-24T15:10:02.481Z,50.41
2019-01-24T15:12:33.587Z,50.71
2019-01-24T15:15:06.359Z,50.86
2019-01-24T15:17:37.530Z,50.81
2019-01-24T15:20:09.764Z,51.01
2019-01-24T15:22:41.194Z,51.33
2019-01-24T15:25:12.359Z,51.07
2019-01-24T15:27:44.537Z,51.29
2019-01-24T15:30:18.586Z,51.13
2019-01-24T15:32:49.819Z,52.00
2019-01-24T15:35:21.107Z,51.56
2019-01-24T15:37:54.606Z,51.67
2019-01-24T15:40:29.777Z,53.26
2019-01-24T15:43:02.390Z,53.73
2019-01-24T15:45:38.189Z,54.00
2019-01-24T15:48:09.544Z,54.14
2019-01-24T15:50:40.610Z,54.27
2019-01-24T15:53:11.689Z,54.68
2019-01-24T15:55:42.757Z,55.17
2019-01-24T15:58:13.941Z,55.12
2019-01-24T16:00:45.081Z,56.43
2019-01-24T16:03:16.448Z,56.83
2019-01-24T16:05:47.516Z,55.85
2019-01-24T16:08:18.520Z,56.45
2019-01-24T16:10:49.782Z,56.86
2019-01-24T16:13:21.972Z,57.10
2019-01-24T16:15:53.076Z,57.93
2019-01-24T16:18:24.174Z,58.46
2019-01-24T16:20:55.282Z,57.92
2019-01-24T16:23:26.454Z,57.69
2019-01-24T16:25:57.492Z,58.75
2019-01-24T16:28:28.671Z,58.25
2019-01-24T16:30:59.817Z,58.80
2019-01-24T16:33:30.991Z,59.21
2019-01-24T16:36:02.192Z,59.80
2019-01-24T16:38:34.376Z,60.24
2019-01-24T16:41:05.738Z,61.62
2019-01-24T16:43:36.756Z,61.94
2019-01-24T16:46:07.947Z,64.79
2019-01-24T16:48:39.142Z,66.66
2019-01-24T16:51:10.321Z,66.84
2019-01-24T16:53:41.511Z,69.12
2019-01-24T16:56:12.690Z,68.90
2019-01-24T16:58:43.796Z,68.67
2019-01-24T17:01:21.019Z,68.86
2019-01-24T17:03:52.124Z,68.75
2019-01-24T17:06:23.301Z,69.05
2019-01-24T17:08:55.724Z,69.64
2019-01-24T17:11:26.788Z,69.89
2019-01-24T17:13:57.892Z,69.99
2019-01-24T17:16:29.084Z,70.29
2019-01-24T17:19:00.268Z,70.60
2019-01-24T17:21:31.364Z,70.48
2019-01-24T17:24:02.543Z,70.38
2019-01-24T17:26:33.674Z,71.24
2019-01-24T17:29:05.541Z,71.58
2019-01-24T17:31:36.779Z,71.98
2019-01-24T17:34:07.950Z,71.53
2019-01-24T17:36:39.142Z,71.57
2019-01-24T17:39:12.777Z,71.58
2019-01-24T17:41:43.935Z,70.98
2019-01-24T17:44:15.393Z,72.03
2019-01-24T17:46:46.494Z,71.72
2019-01-24T17:49:17.642Z,71.44
2019-01-24T17:51:48.796Z,71.04
2019-01-24T17:54:20.822Z,70.94
2019-01-24T17:56:53.063Z,70.91
2019-01-24T17:59:24.244Z,71.34
2019-01-24T18:01:55.369Z,71.17
2019-01-24T18:04:26.454Z,71.25
2019-01-24T18:06:57.612Z,70.54
2019-01-24T18:09:29.012Z,70.51
2019-01-24T18:12:00.152Z,70.62
2019-01-24T18:14:31.250Z,70.25
2019-01-24T18:17:02.387Z,69.61
2019-01-24T18:19:33.566Z,69.37
2019-01-24T18:22:05.175Z,69.63
2019-01-24T18:24:36.256Z,69.36
2019-01-24T18:27:07.488Z,69.08
2019-01-24T18:29:38.579Z,68.57
2019-01-24T18:32:09.742Z,68.15
2019-01-24T18:34:40.893Z,68.21
2019-01-24T18:37:15.113Z,68.09
2019-01-24T18:39:46.441Z,67.81
2019-01-24T18:42:17.593Z,67.45
2019-01-24T18:44:48.745Z,67.79
2019-01-24T18:47:19.897Z,67.68
2019-01-24T18:49:51.148Z,67.42
2019-01-24T18:52:22.172Z,67.22
2019-01-24T18:54:53.373Z,67.59
2019-01-24T18:57:24.521Z,67.17
2019-01-24T18:59:55.631Z,66.90
2019-01-24T19:02:26.716Z,65.84
2019-01-24T19:04:57.876Z,65.39
2019-01-24T19:07:29.032Z,65.75
2019-01-24T19:10:00.200Z,64.80
2019-01-24T19:12:31.346Z,65.27
2019-01-24T19:15:02.442Z,65.57
2019-01-24T19:17:33.609Z,65.59
2019-01-24T19:20:06.693Z,64.96
2019-01-24T19:22:37.846Z,64.77
2019-01-24T19:25:11.136Z,64.59
2019-01-24T19:27:42.625Z,64.04
2019-01-24T19:30:18.056Z,64.73
2019-01-24T19:32:49.315Z,64.68
2019-01-24T19:35:20.515Z,64.88
2019-01-24T19:37:51.822Z,64.90
2019-01-24T19:40:23.677Z,65.16
2019-01-24T19:42:54.820Z,64.94
2019-01-24T19:45:26.291Z,65.13
2019-01-24T19:47:58.513Z,64.89
2019-01-24T19:50:29.797Z,64.92
2019-01-24T19:53:02.224Z,65.32
2019-01-24T19:55:33.392Z,66.27
2019-01-24T19:58:05.315Z,66.96
2019-01-24T20:00:36.597Z,66.62
2019-01-24T20:03:08.010Z,67.16
2019-01-24T20:05:39.358Z,67.69
2019-01-24T20:08:10.619Z,68.04
2019-01-24T20:10:42.016Z,68.25
2019-01-24T20:13:13.101Z,67.52
2019-01-24T20:15:44.260Z,68.43
2019-01-24T20:18:15.421Z,68.53
2019-01-24T20:20:46.588Z,68.27
2019-01-24T20:23:17.763Z,68.09
2019-01-24T20:25:48.841Z,67.66
2019-01-24T20:28:19.899Z,68.01
2019-01-24T20:30:51.017Z,66.99
2019-01-24T20:33:22.345Z,66.85
2019-01-24T20:35:58.307Z,67.73
2019-01-24T20:38:29.506Z,67.58
2019-01-24T20:41:00.611Z,67.91
2019-01-24T20:43:35.455Z,67.91
2019-01-24T20:46:04.989Z,67.70
2019-01-24T20:48:36.238Z,67.74
2019-01-24T20:51:07.414Z,68.35
2019-01-24T20:53:38.562Z,68.86
2019-01-24T20:56:09.736Z,69.34
2019-01-24T20:58:40.844Z,68.82
2019-01-24T21:01:12.049Z,68.99
2019-01-24T21:03:43.319Z,69.18
2019-01-24T21:06:14.485Z,70.07
2019-01-24T21:08:45.564Z,69.22
2019-01-24T21:11:16.931Z,68.89
2019-01-24T21:13:48.107Z,69.01
2019-01-24T21:16:19.262Z,67.65
2019-01-24T21:18:50.350Z,67.06
2019-01-24T21:21:21.517Z,66.69
2019-01-24T21:23:52.609Z,67.08
2019-01-24T21:26:23.866Z,66.39
2019-01-24T21:28:55.063Z,66.45
2019-01-24T21:31:26.237Z,66.05
2019-01-24T21:33:57.324Z,65.86
2019-01-24T21:36:28.450Z,65.79
2019-01-24T21:38:59.560Z,66.45
2019-01-24T21:41:32.360Z,66.24
2019-01-24T21:44:03.509Z,66.44
2019-01-24T21:46:34.616Z,66.32
2019-01-24T21:49:06.262Z,66.00
2019-01-24T21:51:38.866Z,65.79
2019-01-24T21:54:09.930Z,65.52
2019-01-24T21:56:41.033Z,65.78
2019-01-24T21:59:12.041Z,66.35
2019-01-24T22:01:43.237Z,66.89
2019-01-24T22:04:14.383Z,66.52
2019-01-24T22:06:45.465Z,66.64
2019-01-24T22:09:18.040Z,66.74
2019-01-24T22:11:49.122Z,66.59
2019-01-24T22:14:20.193Z,67.23
2019-01-24T22:16:51.390Z,67.31
2019-01-24T22:19:22.539Z,67.49
2019-01-24T22:21:53.561Z,67.60
2019-01-24T22:24:24.660Z,68.43
2019-01-24T22:26:55.838Z,68.01
2019-01-24T22:29:26.909Z,68.59
2019-01-24T22:31:58.049Z,67.98
2019-01-24T22:34:29.204Z,68.38
2019-01-24T22:37:00.375Z,68.11
2019-01-24T22:39:36.594Z,67.57
2019-01-24T22:42:04.766Z,67.37
2019-01-24T22:44:35.831Z,68.08
2019-01-24T22:47:06.991Z,69.14
2019-01-24T22:49:37.996Z,68.85
2019-01-24T22:52:09.327Z,68.35
2019-01-24T22:54:40.532Z,68.67
2019-01-24T22:57:13.330Z,68.59
2019-01-24T22:59:44.407Z,68.25
2019-01-24T23:02:22.251Z,70.57
2019-01-24T23:04:53.254Z,68.53
2019-01-24T23:07:24.279Z,68.08
2019-01-24T23:09:56.936Z,67.50
2019-01-24T23:12:28.103Z,68.13
2019-01-24T23:14:59.255Z,67.75
2019-01-24T23:17:30.264Z,68.33
2019-01-24T23:20:01.272Z,68.08
2019-01-24T23:22:32.392Z,68.63
2019-01-24T23:25:04.098Z,68.80
2019-01-24T23:27:35.258Z,67.88
2019-01-24T23:30:07.755Z,67.44
2019-01-24T23:32:39.068Z,67.37
2019-01-24T23:35:10.371Z,67.48
2019-01-24T23:37:42.258Z,68.54
2019-01-24T23:40:13.833Z,68.96
2019-01-24T23:42:45.510Z,68.37
2019-01-24T23:45:16.623Z,67.94
2019-01-24T23:47:47.799Z,67.76
2019-01-24T23:50:18.983Z,66.94
2019-01-24T23:52:50.009Z,67.23
2019-01-24T23:55:21.097Z,65.87
2019-01-24T23:57:52.253Z,66.19
